createdAt,value
2023-02-08T00:03:35.208Z,-3.87
2023-02-08T00:08:40.673Z,-4.02
2023-02-08T00:13:44.125Z,-4.01
2023-02-08T00:18:47.453Z,-4.09
2023-02-08T00:23:52.353Z,-4.05
2023-02-08T00:28:55.813Z,-4.14
2023-02-08T00:33:59.284Z,-4.06
2023-02-08T00:39:04.213Z,-3.99
2023-02-08T00:44:07.830Z,-3.99
2023-02-08T00:49:11.436Z,-4.24
2023-02-08T00:54:17.579Z,-4.20
2023-02-08T00:59:20.940Z,-4.57
2023-02-08T01:04:24.320Z,-4.40
2023-02-08T01:09:29.286Z,-4.40
2023-02-08T01:14:32.804Z,-4.41
2023-02-08T01:19:36.422Z,-4.37
2023-02-08T01:24:41.225Z,-4.21
2023-02-08T01:29:44.567Z,-4.29
2023-02-08T01:34:48.123Z,-4.18
2023-02-08T01:39:53.051Z,-4.21
2023-02-08T01:45:30.684Z,-4.22
2023-02-08T01:50:43.280Z,-4.26
2023-02-08T01:55:52.429Z,-4.34
2023-02-08T02:00:56.396Z,-4.70
2023-02-08T02:06:08.410Z,-4.54
2023-02-08T02:11:14.481Z,-4.49
2023-02-08T02:16:18.453Z,-4.57
2023-02-08T02:21:47.339Z,-4.57
2023-02-08T02:27:10.981Z,-4.60
2023-02-08T02:32:31.775Z,-4.68
2023-02-08T02:37:49.953Z,-4.50
2023-02-08T02:43:25.015Z,-4.44
2023-02-08T02:48:35.424Z,-4.53
2023-02-08T02:53:46.359Z,-4.51
2023-02-08T02:58:51.064Z,-4.51
2023-02-08T03:03:55.788Z,-4.67
2023-02-08T03:09:27.550Z,-4.84
2023-02-08T03:14:42.360Z,-4.62
2023-02-08T03:19:52.643Z,-4.85
2023-02-08T03:24:58.326Z,-4.71
2023-02-08T03:30:04.792Z,-4.59
2023-02-08T03:35:17.082Z,-4.65
2023-02-08T03:40:25.876Z,-4.50
2023-02-08T03:45:34.193Z,-4.61
2023-02-08T03:50:41.843Z,-4.66
2023-02-08T03:55:49.363Z,-4.61
2023-02-08T04:00:57.730Z,-4.66
2023-02-08T04:06:02.707Z,-4.53
2023-02-08T04:11:06.418Z,-4.43
2023-02-08T04:16:11.699Z,-4.45
2023-02-08T04:21:16.592Z,-4.42
2023-02-08T04:26:19.986Z,-4.33
2023-02-08T04:31:23.779Z,-4.20
2023-02-08T04:36:28.793Z,-4.12
2023-02-08T04:41:32.377Z,-4.18
2023-02-08T04:46:35.757Z,-4.16
2023-02-08T04:51:40.699Z,-4.15
2023-02-08T04:56:44.112Z,-4.20
2023-02-08T05:01:47.717Z,-4.25
2023-02-08T05:06:52.663Z,-4.02
2023-02-08T05:11:56.078Z,-4.23
2023-02-08T05:16:59.522Z,-4.10
2023-02-08T05:22:04.785Z,-4.12
2023-02-08T05:27:08.260Z,-4.06
2023-02-08T05:32:11.812Z,-3.94
2023-02-08T05:37:16.716Z,-3.99
2023-02-08T05:42:20.249Z,-3.96
2023-02-08T05:47:23.780Z,-3.85
2023-02-08T05:52:28.635Z,-3.91
2023-02-08T05:57:34.264Z,-3.80
2023-02-08T06:02:39.137Z,-3.91
2023-02-08T06:07:43.936Z,-3.61
2023-02-08T06:12:47.332Z,-3.47
2023-02-08T06:17:50.861Z,-3.53
2023-02-08T06:22:56.692Z,-3.33
2023-02-08T06:28:00.307Z,-3.47
2023-02-08T06:33:03.877Z,-3.62
2023-02-08T06:38:08.651Z,-3.67
2023-02-08T06:43:11.899Z,-3.44
2023-02-08T06:48:15.982Z,-3.32
2023-02-08T06:53:21.685Z,-3.28
2023-02-08T06:58:25.018Z,-3.27
2023-02-08T07:03:28.603Z,-3.30
2023-02-08T07:08:34.062Z,-3.43
2023-02-08T07:13:38.599Z,-3.14
2023-02-08T07:18:42.005Z,-3.08
2023-02-08T07:23:47.077Z,-2.72
2023-02-08T07:28:50.475Z,-2.62
2023-02-08T07:33:53.961Z,-2.83
2023-02-08T07:38:59.044Z,-2.59
2023-02-08T07:44:02.428Z,-2.49
2023-02-08T07:49:06.092Z,-2.52
2023-02-08T07:54:10.934Z,-2.29
2023-02-08T07:59:14.663Z,-2.18
2023-02-08T08:04:20.015Z,-2.20
2023-02-08T08:09:25.107Z,-2.14
2023-02-08T08:14:28.488Z,-2.15
2023-02-08T08:19:31.840Z,-1.88
2023-02-08T08:24:36.980Z,-1.78
2023-02-08T08:29:40.445Z,-1.61
2023-02-08T08:34:44.038Z,-1.60
2023-02-08T08:39:49.071Z,-1.56
2023-02-08T08:44:52.744Z,-1.28
2023-02-08T08:49:56.323Z,-1.27
2023-02-08T08:55:01.212Z,-1.17
2023-02-08T09:00:04.651Z,-1.39
2023-02-08T09:05:08.655Z,-1.17
2023-02-08T09:10:13.615Z,-0.88
2023-02-08T09:15:17.248Z,-0.66
2023-02-08T09:20:21.964Z,-0.42
2023-02-08T09:25:27.492Z,-0.03
2023-02-08T09:30:30.886Z,0.17
2023-02-08T09:35:34.391Z,0.79
2023-02-08T09:40:47.193Z,1.15
2023-02-08T09:46:00.336Z,1.81
2023-02-08T09:51:11.236Z,2.14
2023-02-08T09:56:18.218Z,1.79
2023-02-08T10:01:25.947Z,1.32
2023-02-08T10:06:31.949Z,1.05
2023-02-08T10:11:51.450Z,0.90
2023-02-08T10:17:03.765Z,0.57
2023-02-08T10:22:19.349Z,0.57
2023-02-08T10:27:30.148Z,0.90
2023-02-08T10:32:50.428Z,1.18
2023-02-08T10:37:58.109Z,1.27
2023-02-08T10:43:16.428Z,1.44
2023-02-08T10:48:33.174Z,1.57
2023-02-08T10:53:36.524Z,1.67
2023-02-08T10:58:41.491Z,1.52
2023-02-08T11:04:03.142Z,1.60
2023-02-08T11:09:07.148Z,1.56
2023-02-08T11:14:18.632Z,1.87
2023-02-08T11:19:35.591Z,2.01
2023-02-08T11:24:41.900Z,2.03
2023-02-08T11:29:46.819Z,1.89
2023-02-08T11:34:50.098Z,1.83
2023-02-08T11:39:55.586Z,1.39
2023-02-08T11:45:02.285Z,1.39
2023-02-08T11:50:11.203Z,1.43
2023-02-08T11:55:24.388Z,1.31
2023-02-08T12:00:31.380Z,1.47
2023-02-08T12:05:45.511Z,1.58
2023-02-08T12:11:15.756Z,1.29
2023-02-08T12:16:34.591Z,1.33
2023-02-08T12:21:52.530Z,1.12
2023-02-08T12:27:14.608Z,1.15
2023-02-08T12:32:38.928Z,1.28
2023-02-08T12:38:05.046Z,1.07
2023-02-08T12:43:17.963Z,0.83
2023-02-08T12:48:43.473Z,0.70
2023-02-08T12:53:52.200Z,0.85
2023-02-08T12:59:08.292Z,0.66
2023-02-08T13:04:22.018Z,0.47
2023-02-08T13:09:40.371Z,0.59
2023-02-08T13:14:48.416Z,0.43
2023-02-08T13:20:02.787Z,0.48
2023-02-08T13:25:15.157Z,0.30
2023-02-08T13:30:21.029Z,0.07
2023-02-08T13:35:30.315Z,0.18
2023-02-08T13:40:36.630Z,0.10
2023-02-08T13:45:44.077Z,0.08
2023-02-08T13:50:51.333Z,-0.07
2023-02-08T13:55:58.549Z,-0.12
2023-02-08T14:01:18.397Z,-0.10
2023-02-08T14:06:26.331Z,-0.21
2023-02-08T14:11:43.953Z,-0.11
2023-02-08T14:16:48.817Z,-0.17
2023-02-08T14:22:02.606Z,-0.21
2023-02-08T14:27:12.797Z,-0.28
2023-02-08T14:32:25.351Z,-0.19
2023-02-08T14:37:32.690Z,-0.26
2023-02-08T14:42:55.929Z,-0.07
2023-02-08T14:48:15.415Z,-0.16
2023-02-08T14:53:27.071Z,-0.17
2023-02-08T14:58:33.612Z,-0.28
2023-02-08T15:03:37.660Z,-0.03
2023-02-08T15:08:42.670Z,0.38
2023-02-08T15:13:51.293Z,0.71
2023-02-08T15:18:55.037Z,0.85
2023-02-08T15:24:06.049Z,0.83
2023-02-08T15:29:19.896Z,1.32
2023-02-08T15:34:26.744Z,1.44
2023-02-08T15:39:35.882Z,1.53
2023-02-08T15:44:44.741Z,1.37
2023-02-08T15:49:50.972Z,1.36
2023-02-08T15:54:56.136Z,1.17
2023-02-08T16:00:00.272Z,0.78
2023-02-08T16:05:12.736Z,0.31
2023-02-08T16:10:31.346Z,0.23
2023-02-08T16:15:45.099Z,-0.05
2023-02-08T16:20:58.264Z,-0.02
2023-02-08T16:26:19.572Z,-0.05
2023-02-08T16:31:26.990Z,-0.12
2023-02-08T16:36:36.362Z,-0.10
2023-02-08T16:42:14.549Z,-0.31
2023-02-08T16:47:27.984Z,-0.42
2023-02-08T16:52:31.456Z,-0.28
2023-02-08T16:57:47.599Z,-0.17
2023-02-08T17:02:51.930Z,-0.27
2023-02-08T17:07:55.435Z,-0.31
2023-02-08T17:13:19.914Z,-0.17
2023-02-08T17:18:24.610Z,-0.11
2023-02-08T17:23:28.323Z,-0.05
2023-02-08T17:28:35.861Z,0.03
2023-02-08T17:33:40.359Z,0.00
2023-02-08T17:38:45.702Z,0.02
2023-02-08T17:43:54.015Z,0.10
2023-02-08T17:48:59.734Z,0.07
2023-02-08T17:54:06.118Z,0.12
2023-02-08T17:59:11.039Z,0.10
2023-02-08T18:04:14.666Z,0.07
2023-02-08T18:09:18.174Z,0.03
2023-02-08T18:14:23.106Z,0.10
2023-02-08T18:19:26.308Z,0.11
2023-02-08T18:24:31.867Z,0.12
2023-02-08T18:29:37.283Z,0.09
2023-02-08T18:34:43.144Z,0.06
2023-02-08T18:39:46.506Z,0.04
2023-02-08T18:44:51.463Z,0.07
2023-02-08T18:49:55.791Z,-0.11
2023-02-08T18:54:59.293Z,-0.11
2023-02-08T19:00:04.560Z,0.02
2023-02-08T19:05:08.663Z,0.07
2023-02-08T19:10:12.166Z,-0.03
2023-02-08T19:15:17.962Z,0.04
2023-02-08T19:20:22.220Z,0.03
2023-02-08T19:25:28.694Z,0.09
2023-02-08T19:30:33.787Z,0.11
2023-02-08T19:35:40.948Z,0.00
2023-02-08T19:40:44.359Z,-0.07
2023-02-08T19:45:49.156Z,-0.05
2023-02-08T19:50:56.864Z,0.05
2023-02-08T19:56:01.836Z,0.15
2023-02-08T20:01:09.318Z,0.22
2023-02-08T20:06:17.472Z,0.09
2023-02-08T20:11:23.345Z,-0.05
2023-02-08T20:16:31.638Z,-0.03
2023-02-08T20:21:39.936Z,-0.02
2023-02-08T20:26:44.766Z,-0.01
2023-02-08T20:31:52.141Z,-0.06
2023-02-08T20:37:06.789Z,-0.22
2023-02-08T20:42:11.296Z,-0.26
2023-02-08T20:47:19.247Z,-0.06
2023-02-08T20:52:22.633Z,-0.11
2023-02-08T20:57:26.281Z,-0.06
2023-02-08T21:02:31.286Z,0.02
2023-02-08T21:07:34.814Z,-0.16
2023-02-08T21:12:38.661Z,-0.18
2023-02-08T21:17:43.631Z,0.08
2023-02-08T21:22:46.723Z,0.15
2023-02-08T21:27:50.154Z,0.12
2023-02-08T21:32:54.970Z,0.03
2023-02-08T21:37:58.484Z,0.15
2023-02-08T21:43:01.865Z,0.14
2023-02-08T21:48:07.122Z,0.15
2023-02-08T21:53:28.862Z,-0.08
2023-02-08T21:58:32.333Z,0.04
2023-02-08T22:03:37.248Z,0.13
2023-02-08T22:08:40.655Z,0.12
2023-02-08T22:13:45.308Z,0.13
2023-02-08T22:18:50.125Z,0.14
2023-02-08T22:23:53.551Z,0.25
2023-02-08T22:28:56.914Z,0.16
2023-02-08T22:39:22.610Z,0.20
2023-02-08T22:44:26.132Z,0.28
2023-02-08T22:49:31.223Z,0.24
2023-02-08T22:54:35.088Z,0.24
2023-02-08T22:59:38.928Z,0.30
2023-02-08T23:04:43.868Z,0.33
2023-02-08T23:09:47.324Z,0.41
2023-02-08T23:14:51.372Z,0.22
2023-02-08T23:19:56.268Z,0.23
2023-02-08T23:24:59.524Z,0.30
2023-02-08T23:30:02.893Z,0.22
2023-02-08T23:35:10.809Z,0.26
2023-02-08T23:40:14.418Z,0.22
2023-02-08T23:45:17.941Z,0.26
2023-02-08T23:50:22.873Z,0.26
2023-02-08T23:55:26.192Z,0.30
